Time;durP1;ratioP1;P1;durP2;ratioP2;P2;SDS_P1;SDS_P2;PMS_P1;PMS_P2;Temp;Humidity;BMP_temperature;BMP_pressure;BME280_temperature;BME280_humidity;BME280_pressure;Samples;Min_cycle;Max_cycle;Signal;HPM_P1;HPM_P2
2021/12/25 00:01:06;;;;;;;24.35;13.68;;;;;;;5.00;96.19;100505.31;5033494;28;20053;-41
2021/12/25 00:03:32;;;;;;;25.15;14.20;;;;;;;4.99;96.54;100500.94;5032865;28;20021;-41
2021/12/25 00:05:58;;;;;;;24.95;13.85;;;;;;;4.87;96.12;100504.84;5033548;28;20488;-41
2021/12/25 00:08:24;;;;;;;32.35;15.25;;;;;;;4.81;95.98;100508.13;5033732;28;20021;-42
2021/12/25 00:10:50;;;;;;;29.33;14.43;;;;;;;4.73;95.14;100516.03;5033358;28;20036;-42
2021/12/25 00:13:18;;;;;;;31.58;15.23;;;;;;;4.67;95.85;100511.31;5033403;28;20033;-42
2021/12/25 00:15:43;;;;;;;27.05;14.48;;;;;;;4.55;95.72;100508.84;5033530;28;20061;-42
2021/12/25 00:18:09;;;;;;;32.20;15.40;;;;;;;4.53;96.03;100513.53;5033181;28;20068;-43
2021/12/25 00:20:34;;;;;;;33.70;16.08;;;;;;;4.50;96.19;100510.31;5033194;28;20021;-42
2021/12/25 00:23:00;;;;;;;35.45;16.73;;;;;;;4.48;96.27;100512.31;5033209;28;20036;-42
2021/12/25 00:25:26;;;;;;;32.35;17.33;;;;;;;4.45;96.14;100513.44;5033442;28;20523;-42
2021/12/25 00:30:30;;;;;;;39.45;17.58;;;;;;;4.43;95.94;100515.41;5033310;28;20045;-42
2021/12/25 00:33:18;;;;;;;39.40;17.35;;;;;;;4.40;95.98;100515.72;5033174;28;20077;-42
2021/12/25 00:35:43;;;;;;;39.15;19.27;;;;;;;4.39;95.90;100504.19;5033406;28;20032;-42
2021/12/25 00:38:08;;;;;;;39.90;18.88;;;;;;;4.37;95.84;100516.00;5032998;28;20455;-42
2021/12/25 00:40:33;;;;;;;39.67;18.38;;;;;;;4.30;95.18;100517.59;5032994;28;20036;-42
2021/12/25 00:42:59;;;;;;;39.72;17.63;;;;;;;4.20;94.47;100506.16;5033079;28;20104;-42
2021/12/25 00:45:24;;;;;;;36.83;18.38;;;;;;;4.11;94.91;100522.03;5033002;28;20563;-42
2021/12/25 00:47:50;;;;;;;42.63;19.17;;;;;;;4.08;94.97;100516.16;5032773;28;20108;-41
2021/12/25 00:50:15;;;;;;;43.92;19.40;;;;;;;4.02;95.10;100514.94;5032806;28;20033;-41
2021/12/25 00:52:41;;;;;;;44.08;20.40;;;;;;;3.98;95.33;100521.56;5032936;28;20025;-42
2021/12/25 00:55:08;;;;;;;41.78;20.30;;;;;;;3.96;95.60;100521.69;5032856;28;20022;-42
2021/12/25 00:57:35;;;;;;;53.40;21.80;;;;;;;3.90;95.05;100526.78;5032666;28;20021;-41
2021/12/25 01:00:01;;;;;;;50.15;20.67;;;;;;;3.82;95.37;100521.31;5032515;28;20056;-41
2021/12/25 01:02:26;;;;;;;47.97;21.17;;;;;;;3.81;96.07;100522.31;5032425;28;20025;-41
2021/12/25 01:04:52;;;;;;;50.88;21.23;;;;;;;3.78;95.93;100525.28;5032573;28;20090;-41
2021/12/25 01:07:17;;;;;;;52.78;21.63;;;;;;;3.73;96.31;100523.03;5032600;28;20031;-41
2021/12/25 01:09:42;;;;;;;51.70;22.00;;;;;;;3.68;96.01;100528.78;5032583;28;20057;-42
2021/12/25 01:12:08;;;;;;;52.35;23.35;;;;;;;3.68;96.52;100520.81;5032391;28;20422;-41
2021/12/25 01:14:41;;;;;;;58.65;24.33;;;;;;;3.68;96.67;100531.44;5032243;28;20035;-41
2021/12/25 01:25:27;;;;;;;49.42;21.30;;;;;;;3.60;95.88;100515.38;5032325;28;20043;-42
2021/12/25 01:28:37;;;;;;;43.45;20.92;;;;;;;3.62;95.52;100520.56;5032136;28;20049;-41
2021/12/25 01:41:18;;;;;;;43.70;19.63;;;;;;;3.56;95.43;100511.34;5032344;28;20040;-42
2021/12/25 01:49:14;;;;;;;48.63;21.03;;;;;;;3.48;95.75;100513.88;5032350;28;20068;-41
2021/12/25 01:51:39;;;;;;;42.75;20.20;;;;;;;3.48;95.93;100511.22;5032128;28;20056;-41
2021/12/25 01:54:04;;;;;;;43.33;20.58;;;;;;;3.43;95.68;100510.81;5032528;28;20117;-41
2021/12/25 01:56:30;;;;;;;43.30;21.35;;;;;;;3.38;95.63;100513.06;5032557;28;20028;-41
2021/12/25 01:58:55;;;;;;;41.33;19.92;;;;;;;3.37;95.22;100508.72;5031185;28;20060;-41
2021/12/25 02:01:20;;;;;;;40.05;19.23;;;;;;;3.33;95.27;100515.31;5030653;28;20053;-41
2021/12/25 02:03:46;;;;;;;40.58;18.92;;;;;;;3.28;94.93;100510.41;5032163;28;20015;-41
2021/12/25 02:06:12;;;;;;;44.60;20.05;;;;;;;3.22;95.53;100511.00;5032164;28;20041;-40
2021/12/25 02:08:40;;;;;;;44.90;19.88;;;;;;;3.17;94.99;100519.38;5032022;28;20076;-41
2021/12/25 02:11:06;;;;;;;51.75;20.92;;;;;;;3.23;96.16;100525.97;5032057;28;20056;-41
2021/12/25 02:13:32;;;;;;;48.88;21.23;;;;;;;3.17;95.78;100532.69;5031929;28;20083;-41
2021/12/25 02:16:00;;;;;;;41.30;21.58;;;;;;;3.16;95.31;100522.19;5031964;28;20034;-42
2021/12/25 02:18:43;;;;;;;47.88;22.40;;;;;;;3.13;95.25;100522.47;5031615;28;20045;-41
2021/12/25 02:21:18;;;;;;;48.53;20.35;;;;;;;3.15;95.95;100533.81;5031826;28;20037;-41
2021/12/25 02:23:44;;;;;;;42.80;20.60;;;;;;;3.14;95.81;100535.63;5030559;28;20461;-41
2021/12/25 02:26:09;;;;;;;37.53;19.58;;;;;;;3.05;95.73;100534.66;5030845;28;20045;-41
2021/12/25 02:28:35;;;;;;;44.58;20.15;;;;;;;3.03;95.25;100528.66;5035212;28;20026;-42
2021/12/25 02:31:05;;;;;;;45.40;20.52;;;;;;;3.02;96.07;100528.78;5035046;28;20017;-42
2021/12/25 02:33:31;;;;;;;44.75;20.75;;;;;;;3.00;95.87;100518.31;5034099;28;20658;-41
2021/12/25 02:35:56;;;;;;;47.90;20.70;;;;;;;3.00;96.01;100528.94;5034988;28;20055;-41
2021/12/25 02:38:24;;;;;;;39.42;19.58;;;;;;;3.01;95.50;100535.09;5035145;28;20117;-41
2021/12/25 02:40:50;;;;;;;37.03;18.58;;;;;;;3.01;95.08;100527.94;5050331;28;20025;-41
2021/12/25 02:43:16;;;;;;;36.30;19.67;;;;;;;3.00;94.93;100536.03;5035261;28;20056;-41
2021/12/25 02:45:41;;;;;;;38.92;20.33;;;;;;;2.96;93.94;100542.63;5035092;28;20453;-41
2021/12/25 02:48:09;;;;;;;34.20;18.70;;;;;;;2.88;94.27;100547.81;5034902;28;20030;-41
2021/12/25 02:50:37;;;;;;;35.22;18.65;;;;;;;2.82;93.97;100544.75;5034966;28;20123;-41
2021/12/25 02:53:03;;;;;;;34.55;18.50;;;;;;;2.80;93.82;100548.50;5034922;28;20025;-41
2021/12/25 02:55:29;;;;;;;32.47;18.60;;;;;;;2.73;93.45;100548.22;5034988;28;20080;-41
2021/12/25 02:57:55;;;;;;;35.17;19.70;;;;;;;2.71;93.89;100558.13;5034774;28;20052;-41
2021/12/25 03:00:23;;;;;;;25.55;15.30;;;;;;;2.60;93.32;100548.47;5034678;28;20091;-41
2021/12/25 03:02:49;;;;;;;;;;;;;;;2.57;93.02;100559.38;5035160;28;20026;-41
2021/12/25 03:05:15;;;;;;;29.08;16.35;;;;;;;2.51;93.46;100544.00;5034717;28;19916;-41
2021/12/25 03:07:41;;;;;;;27.40;16.13;;;;;;;2.50;93.67;100554.75;5034701;28;20458;-41
2021/12/25 03:10:07;;;;;;;31.90;18.23;;;;;;;2.47;93.68;100555.84;5034721;28;20108;-41
2021/12/25 03:12:38;;;;;;;26.42;15.73;;;;;;;2.47;92.58;100555.03;5034567;28;20033;-41
2021/12/25 03:15:12;;;;;;;30.17;16.23;;;;;;;2.42;92.45;100542.16;5034461;28;20032;-41
2021/12/25 03:17:38;;;;;;;29.60;16.90;;;;;;;2.37;93.02;100552.34;5034589;28;20041;-41
2021/12/25 03:20:06;;;;;;;30.08;17.60;;;;;;;2.36;93.97;100562.13;5033188;28;20079;-41
2021/12/25 03:22:31;;;;;;;29.50;16.17;;;;;;;2.35;93.49;100565.78;5034556;28;20025;-41
2021/12/25 03:24:57;;;;;;;32.25;16.98;;;;;;;2.33;93.64;100565.06;5034340;28;20025;-42
2021/12/25 03:27:22;;;;;;;31.48;18.35;;;;;;;2.33;93.45;100567.72;5034281;28;20028;-41
2021/12/25 03:29:48;;;;;;;36.72;18.42;;;;;;;2.39;92.66;100563.66;5034482;28;20045;-41
2021/12/25 03:32:13;;;;;;;32.15;17.25;;;;;;;2.31;92.03;100567.00;5034224;28;20025;-41
2021/12/25 03:34:39;;;;;;;30.67;17.55;;;;;;;2.25;92.41;100572.88;5034097;28;20026;-41
2021/12/25 03:37:04;;;;;;;34.08;18.90;;;;;;;2.26;92.84;100571.88;5034248;28;20022;-41
2021/12/25 03:39:30;;;;;;;31.83;17.63;;;;;;;2.24;93.19;100578.28;5034197;28;20373;-41
2021/12/25 03:41:57;;;;;;;31.10;16.83;;;;;;;2.22;92.82;100573.13;5033841;28;20028;-41
2021/12/25 03:44:24;;;;;;;31.05;17.05;;;;;;;2.25;93.37;100572.88;5033761;28;20041;-41
2021/12/25 03:46:50;;;;;;;32.95;16.73;;;;;;;2.26;92.57;100585.16;5034002;28;20079;-42
2021/12/25 03:49:45;;;;;;;33.90;17.83;;;;;;;2.23;92.26;100581.94;5033977;28;20025;-41
2021/12/25 03:57:42;;;;;;;34.75;18.40;;;;;;;2.12;92.66;100594.34;5032883;28;20092;-41
2021/12/25 04:00:08;;;;;;;39.28;18.27;;;;;;;2.12;92.48;100586.38;5033663;28;20036;-41
2021/12/25 04:02:36;;;;;;;35.20;18.20;;;;;;;2.11;92.61;100594.47;5033447;28;20397;-41
2021/12/25 04:05:04;;;;;;;33.90;18.83;;;;;;;2.12;92.39;100606.78;5033812;28;20056;-41
2021/12/25 04:10:13;;;;;;;42.85;17.17;;;;;;;2.06;92.30;100600.19;5033669;28;19909;-40
2021/12/25 04:12:38;;;;;;;38.65;18.70;;;;;;;2.02;92.45;100601.41;5033285;28;20036;-42
2021/12/25 04:15:04;;;;;;;38.70;18.95;;;;;;;2.00;92.34;100605.16;5033240;28;20068;-41
2021/12/25 04:17:29;;;;;;;37.25;19.05;;;;;;;1.98;92.27;100608.81;5033305;28;20104;-40
2021/12/25 04:19:55;;;;;;;39.05;19.58;;;;;;;1.96;92.96;100600.13;5033051;28;20377;-40
2021/12/25 04:22:27;;;;;;;41.47;19.55;;;;;;;1.94;91.96;100617.16;5033018;28;20047;-41
2021/12/25 04:24:53;;;;;;;35.72;17.63;;;;;;;1.96;92.67;100609.91;5033430;28;20067;-40
2021/12/25 04:27:19;;;;;;;36.38;18.27;;;;;;;1.94;92.90;100610.03;5033078;28;20026;-40
2021/12/25 04:29:50;;;;;;;39.38;18.55;;;;;;;1.95;92.79;100613.53;5033092;28;20034;-40
2021/12/25 04:49:25;;;;;;;43.15;20.08;;;;;;;1.66;93.51;100626.63;5032255;28;20140;-40
2021/12/25 05:05:10;;;;;;;44.20;20.50;;;;;;;1.66;93.35;100639.88;5032842;28;20389;-40
2021/12/25 05:07:35;;;;;;;43.58;19.85;;;;;;;1.66;93.10;100650.50;5032738;28;20030;-40
2021/12/25 05:10:01;;;;;;;42.60;19.70;;;;;;;1.67;93.26;100646.88;5032545;28;20028;-41
2021/12/25 05:12:26;;;;;;;48.42;21.20;;;;;;;1.65;93.16;100648.81;5032419;28;20025;-40
2021/12/25 05:14:51;;;;;;;48.65;21.75;;;;;;;1.66;93.71;100661.09;5032413;28;20121;-40
2021/12/25 05:17:17;;;;;;;46.03;22.05;;;;;;;1.67;94.11;100658.34;5032394;28;20028;-40
2021/12/25 05:19:42;;;;;;;42.67;21.25;;;;;;;1.67;93.22;100666.28;5032227;28;20077;-40
2021/12/25 05:22:08;;;;;;;40.20;18.90;;;;;;;1.57;92.33;100661.88;5032244;28;20028;-40
2021/12/25 05:24:34;;;;;;;41.85;21.05;;;;;;;1.59;91.82;100659.97;5032175;28;20084;-40
2021/12/25 05:26:59;;;;;;;42.17;19.80;;;;;;;1.59;92.21;100655.50;5032058;28;20021;-40
2021/12/25 05:29:25;;;;;;;47.63;22.13;;;;;;;1.59;92.61;100657.31;5032052;28;20099;-40
2021/12/25 05:31:52;;;;;;;48.25;21.25;;;;;;;1.58;92.74;100658.25;5032280;28;20100;-41
2021/12/25 05:34:18;;;;;;;44.17;20.77;;;;;;;1.58;92.91;100663.56;5032275;28;20405;-40
2021/12/25 05:36:43;;;;;;;47.95;22.27;;;;;;;1.58;93.16;100668.88;5030894;28;20034;-41
2021/12/25 05:39:12;;;;;;;46.53;21.23;;;;;;;1.55;93.47;100675.25;5030713;28;20492;-40
2021/12/25 05:41:37;;;;;;;43.10;20.40;;;;;;;1.54;93.00;100674.44;5032104;28;20079;-41
2021/12/25 05:44:03;;;;;;;52.08;21.63;;;;;;;1.53;93.18;100672.75;5032083;28;20041;-40
2021/12/25 05:46:28;;;;;;;44.55;20.98;;;;;;;1.54;93.45;100678.91;5031955;28;20080;-40
2021/12/25 05:48:54;;;;;;;43.42;20.48;;;;;;;1.53;92.34;100678.06;5032163;28;20033;-41
2021/12/25 05:51:20;;;;;;;45.28;20.70;;;;;;;1.47;91.99;100670.59;5032250;28;20044;-41
2021/12/25 05:53:46;;;;;;;46.67;19.60;;;;;;;1.44;92.12;100676.16;5032171;28;20033;-41
2021/12/25 05:56:11;;;;;;;41.33;19.52;;;;;;;1.36;92.02;100680.41;5031932;28;20048;-40
2021/12/25 05:58:37;;;;;;;50.67;19.45;;;;;;;1.33;92.28;100688.63;5032000;28;20052;-41
2021/12/25 06:01:03;;;;;;;39.10;18.48;;;;;;;1.31;92.67;100694.06;5032052;28;20100;-43
2021/12/25 06:03:29;;;;;;;51.05;20.27;;;;;;;1.29;91.72;100698.63;5035858;28;20041;-41
2021/12/25 06:05:56;;;;;;;43.47;18.85;;;;;;;1.24;91.79;100692.88;5034723;28;20037;-42
2021/12/25 06:08:21;;;;;;;42.38;18.20;;;;;;;1.21;91.80;100690.47;5035837;28;20120;-42
2021/12/25 06:10:46;;;;;;;39.53;18.00;;;;;;;1.20;91.94;100697.59;5035890;28;20072;-41
2021/12/25 06:13:17;;;;;;;40.80;18.27;;;;;;;1.14;91.65;100697.25;5035630;28;20030;-41
2021/12/25 06:15:42;;;;;;;43.83;18.27;;;;;;;1.05;91.51;100697.03;5036009;28;20094;-41
2021/12/25 06:18:09;;;;;;;43.97;17.30;;;;;;;1.09;92.26;100697.63;5035357;28;20495;-42
2021/12/25 06:20:34;;;;;;;41.95;17.10;;;;;;;1.00;91.15;100707.16;5035608;28;20473;-41
2021/12/25 06:23:00;;;;;;;33.03;15.68;;;;;;;1.03;91.51;100704.25;5035615;28;20029;-41
2021/12/25 06:25:25;;;;;;;31.92;16.25;;;;;;;1.01;90.69;100711.50;5035375;28;20108;-41
2021/12/25 06:27:50;;;;;;;34.13;15.95;;;;;;;1.00;91.43;100711.59;5035242;28;20030;-42
2021/12/25 06:30:16;;;;;;;33.38;15.18;;;;;;;0.97;91.00;100701.25;5035478;28;20099;-41
2021/12/25 06:32:41;;;;;;;27.77;13.63;;;;;;;0.90;90.09;100711.50;5035292;28;20030;-41
2021/12/25 06:35:07;;;;;;;26.52;11.98;;;;;;;0.80;90.07;100723.81;5034117;28;20025;-41
2021/12/25 06:37:33;;;;;;;20.10;11.35;;;;;;;0.77;90.41;100724.06;5035224;28;20030;-41
2021/12/25 06:39:58;;;;;;;23.70;12.35;;;;;;;0.76;90.82;100719.69;5033986;28;20052;-41
2021/12/25 06:42:24;;;;;;;25.50;12.45;;;;;;;0.73;90.25;100726.09;5035396;28;20339;-41
2021/12/25 06:44:49;;;;;;;22.80;10.75;;;;;;;0.73;90.20;100720.78;5034133;28;20030;-42
2021/12/25 06:47:15;;;;;;;23.23;10.65;;;;;;;0.70;89.84;100725.50;5035152;28;20030;-40
2021/12/25 06:49:40;;;;;;;20.88;10.15;;;;;;;0.70;90.38;100726.34;5035076;28;20473;-40
2021/12/25 06:52:06;;;;;;;19.92;9.00;;;;;;;0.69;88.79;100732.59;5035044;28;20077;-41
2021/12/25 06:54:31;;;;;;;21.83;9.48;;;;;;;0.67;89.18;100726.56;5034955;28;20026;-40
2021/12/25 06:56:57;;;;;;;19.63;8.10;;;;;;;0.62;88.45;100724.28;5034862;28;20025;-42
2021/12/25 06:59:22;;;;;;;17.88;7.53;;;;;;;0.56;88.14;100732.72;5033539;28;20029;-41
2021/12/25 07:01:49;;;;;;;17.23;7.20;;;;;;;0.51;88.44;100732.22;5034699;28;20025;-40
2021/12/25 07:04:15;;;;;;;15.88;6.38;;;;;;;0.48;88.20;100732.47;5034830;28;20052;-41
2021/12/25 07:06:40;;;;;;;11.45;6.35;;;;;;;0.41;88.12;100741.84;5034936;28;20025;-42
2021/12/25 07:09:06;;;;;;;12.43;6.25;;;;;;;0.42;87.69;100743.53;5035057;28;20472;-41
2021/12/25 07:11:32;;;;;;;8.38;5.15;;;;;;;0.37;85.34;100750.97;5034728;28;20017;-42
2021/12/25 07:14:00;;;;;;;9.48;4.47;;;;;;;0.26;84.97;100748.31;5032964;28;20032;-41
2021/12/25 07:16:26;;;;;;;9.15;4.50;;;;;;;0.19;85.42;100748.81;5034839;28;20501;-41
2021/12/25 07:18:51;;;;;;;8.07;3.97;;;;;;;0.19;85.05;100750.63;5034445;28;20045;-41
2021/12/25 07:21:17;;;;;;;5.25;3.83;;;;;;;0.07;84.95;100767.41;5033697;28;20025;-43
2021/12/25 07:23:42;;;;;;;9.45;3.60;;;;;;;0.05;84.80;100750.81;5034367;28;20489;-40
2021/12/25 07:26:08;;;;;;;8.55;3.25;;;;;;;0.04;84.94;100755.25;5034168;28;20045;-42
2021/12/25 07:28:34;;;;;;;11.32;3.80;;;;;;;0.01;85.40;100755.50;5034481;28;20028;-42
2021/12/25 07:31:00;;;;;;;6.85;3.90;;;;;;;-0.11;85.39;100751.13;5034334;28;20104;-40
2021/12/25 07:33:27;;;;;;;7.95;3.67;;;;;;;-0.13;86.04;100761.84;5034417;28;20136;-41
2021/12/25 07:35:53;;;;;;;11.90;4.30;;;;;;;-0.18;86.06;100760.50;5034069;28;20109;-41
2021/12/25 07:38:20;;;;;;;6.45;3.83;;;;;;;-0.20;87.02;100770.34;5034099;28;20496;-41
2021/12/25 07:40:45;;;;;;;5.72;3.90;;;;;;;-0.31;85.84;100766.69;5034152;28;20026;-40
2021/12/25 07:43:11;;;;;;;9.18;3.28;;;;;;;-0.33;85.90;100773.88;5033969;28;20033;-40
2021/12/25 07:45:36;;;;;;;5.15;3.10;;;;;;;-0.38;86.42;100788.41;5034008;28;20029;-40
2021/12/25 07:48:03;;;;;;;6.82;3.40;;;;;;;-0.48;86.71;100775.00;5033949;28;20104;-40
2021/12/25 07:50:32;;;;;;;7.20;3.50;;;;;;;-0.50;87.33;100779.56;5033779;28;20025;-40
2021/12/25 07:52:58;;;;;;;9.48;3.45;;;;;;;-0.59;88.06;100783.72;5033684;28;20025;-41
2021/12/25 07:55:24;;;;;;;7.78;3.60;;;;;;;-0.61;88.17;100788.28;5033891;28;20040;-41
2021/12/25 07:57:49;;;;;;;4.70;3.40;;;;;;;-0.64;88.41;100790.31;5033684;28;20048;-41
2021/12/25 08:00:16;;;;;;;5.05;3.35;;;;;;;-0.71;88.61;100798.69;5033755;28;20473;-41
2021/12/25 08:02:43;;;;;;;5.32;3.00;;;;;;;-0.75;88.78;100799.84;5032464;28;20108;-43
2021/12/25 08:05:09;;;;;;;10.63;3.88;;;;;;;-0.80;88.04;100803.78;5033705;28;20400;-42
2021/12/25 08:07:34;;;;;;;5.60;3.38;;;;;;;-0.80;87.90;100801.97;5033608;28;20022;-42
2021/12/25 08:10:13;;;;;;;9.30;4.00;;;;;;;-0.81;88.36;100800.28;5033373;28;20385;-41
2021/12/25 08:12:41;;;;;;;10.70;4.07;;;;;;;-0.78;88.50;100796.59;5033440;28;20393;-41
2021/12/25 08:15:08;;;;;;;6.45;3.75;;;;;;;-0.76;88.56;100803.47;5033396;28;20477;-40
2021/12/25 08:17:33;;;;;;;6.10;2.95;;;;;;;-0.78;87.41;100805.34;5033473;28;20033;-41
2021/12/25 08:19:59;;;;;;;6.85;3.75;;;;;;;-0.84;87.34;100811.09;5033587;28;20535;-41
2021/12/25 08:22:24;;;;;;;8.18;2.97;;;;;;;-0.86;87.41;100813.00;5033259;28;20552;-41
2021/12/25 08:24:51;;;;;;;6.65;2.70;;;;;;;-0.85;86.78;100814.66;5032853;28;20539;-41
2021/12/25 08:27:17;;;;;;;4.93;2.60;;;;;;;-0.95;85.27;100834.75;5033352;28;20026;-41
2021/12/25 08:29:42;;;;;;;6.05;2.92;;;;;;;-0.96;84.80;100827.81;5032110;28;20180;-41
2021/12/25 08:32:08;;;;;;;4.30;2.60;;;;;;;-0.96;84.24;100833.09;5031948;28;20033;-41
2021/12/25 08:34:34;;;;;;;3.92;2.17;;;;;;;-1.00;84.52;100826.31;5033043;28;20034;-41
2021/12/25 08:36:59;;;;;;;4.20;2.35;;;;;;;-1.01;84.67;100841.31;5031878;28;20033;-41
2021/12/25 08:39:24;;;;;;;4.22;2.80;;;;;;;-0.93;84.78;100844.28;5032955;28;20017;-40
2021/12/25 08:41:50;;;;;;;12.35;4.72;;;;;;;-0.65;85.45;100849.41;5033039;28;20033;-41
2021/12/25 08:44:35;;;;;;;7.63;2.85;;;;;;;-0.11;83.39;100846.34;5033159;28;20124;-41
2021/12/25 08:47:07;;;;;;;7.40;2.75;;;;;;;0.52;79.98;100844.28;5031780;28;20481;-41
2021/12/25 08:49:34;;;;;;;8.45;2.80;;;;;;;0.94;77.66;100853.38;5033094;28;20037;-41
2021/12/25 08:52:03;;;;;;;5.32;2.83;;;;;;;1.15;76.23;100863.28;5033133;28;20036;-41
2021/12/25 08:54:28;;;;;;;6.40;2.58;;;;;;;1.31;75.98;100855.78;5033193;28;20052;-41
2021/12/25 08:56:54;;;;;;;5.57;2.50;;;;;;;1.29;75.13;100855.94;5033845;28;20427;-41
2021/12/25 08:59:19;;;;;;;6.35;2.45;;;;;;;1.33;74.57;100866.28;5032060;28;20439;-41
2021/12/25 09:01:45;;;;;;;6.25;1.98;;;;;;;1.27;73.98;100868.44;5033113;28;20074;-40
2021/12/25 09:04:11;;;;;;;5.95;2.10;;;;;;;1.18;73.13;100868.31;5032891;28;20058;-41
2021/12/25 09:06:38;;;;;;;6.25;2.42;;;;;;;0.90;73.41;100881.09;5032761;28;20122;-41
2021/12/25 09:09:05;;;;;;;2.55;1.60;;;;;;;0.57;72.56;100876.56;5031393;28;20033;-41
2021/12/25 09:11:31;;;;;;;2.65;1.73;;;;;;;0.20;73.82;100872.22;5032717;28;20053;-41
2021/12/25 09:13:57;;;;;;;2.63;1.67;;;;;;;0.05;74.56;100872.53;5032493;28;20053;-41
2021/12/25 09:16:22;;;;;;;4.28;1.65;;;;;;;-0.12;75.74;100871.97;5032505;28;20556;-41
2021/12/25 09:18:48;;;;;;;3.08;1.90;;;;;;;-0.02;75.64;100877.44;5032460;28;20072;-41
2021/12/25 09:21:14;;;;;;;7.57;2.28;;;;;;;0.23;74.26;100868.50;5032636;28;20025;-41
2021/12/25 09:23:39;;;;;;;4.03;1.80;;;;;;;0.63;72.97;100876.97;5032424;28;20219;-41
2021/12/25 09:26:04;;;;;;;3.80;2.08;;;;;;;1.07;71.72;100871.81;5031254;28;20053;-41
2021/12/25 09:28:30;;;;;;;5.43;1.52;;;;;;;1.37;69.05;100855.31;5032391;28;20436;-41
2021/12/25 09:30:55;;;;;;;1.92;1.45;;;;;;;1.39;69.31;100873.75;5032376;28;20037;-41
2021/12/25 09:33:21;;;;;;;5.57;2.00;;;;;;;1.68;67.87;100871.41;5032316;28;20030;-43
2021/12/25 09:35:46;;;;;;;2.03;1.42;;;;;;;1.82;67.49;100878.25;5034026;28;20036;-42
2021/12/25 09:38:12;;;;;;;5.25;1.88;;;;;;;1.92;67.88;100866.78;5035134;28;20053;-42
2021/12/25 09:40:38;;;;;;;1.98;1.70;;;;;;;2.01;67.26;100886.41;5036430;28;20017;-41
2021/12/25 09:43:03;;;;;;;4.55;2.30;;;;;;;1.87;67.44;100881.38;5036371;28;20036;-42
2021/12/25 09:45:28;;;;;;;5.15;1.90;;;;;;;1.36;68.01;100893.38;5036173;28;20021;-41
2021/12/25 09:47:54;;;;;;;4.07;2.30;;;;;;;0.64;70.81;100897.19;5036541;28;20488;-42
2021/12/25 09:50:19;;;;;;;2.80;1.98;;;;;;;0.08;72.55;100901.41;5035018;28;20485;-41
2021/12/25 09:52:44;;;;;;;2.20;1.90;;;;;;;-0.34;74.40;100888.56;5036169;28;20393;-41
2021/12/25 09:55:12;;;;;;;2.80;1.88;;;;;;;-0.68;75.96;100900.69;5036237;28;20067;-41
2021/12/25 09:57:37;;;;;;;4.47;2.25;;;;;;;-0.83;77.03;100907.88;5036100;28;20025;-42
2021/12/25 10:00:13;;;;;;;3.35;2.25;;;;;;;-0.88;77.31;100920.56;5035884;28;20021;-42
2021/12/25 10:02:50;;;;;;;4.63;2.17;;;;;;;-0.92;77.20;100917.31;5035986;28;20021;-42
2021/12/25 10:05:32;;;;;;;4.53;2.20;;;;;;;-1.04;77.25;100917.31;5034724;28;20032;-42
2021/12/25 10:08:11;;;;;;;3.28;1.98;;;;;;;-1.00;77.54;100921.41;5034648;28;20385;-42
2021/12/25 10:10:49;;;;;;;5.97;2.20;;;;;;;-0.98;77.66;100930.09;5034589;28;20025;-42
2021/12/25 10:13:38;;;;;;;2.92;2.05;;;;;;;-0.93;77.20;100912.13;5035992;28;20037;-42
2021/12/25 10:16:29;;;;;;;3.80;2.17;;;;;;;-0.93;77.41;100912.97;5035946;28;20033;-42
2021/12/25 10:19:11;;;;;;;4.10;2.10;;;;;;;-0.82;78.18;100920.13;5035470;28;20387;-42
2021/12/25 10:21:36;;;;;;;10.52;2.10;;;;;;;-0.72;76.34;100910.63;5035553;28;20025;-41
2021/12/25 10:24:28;;;;;;;4.78;2.38;;;;;;;-0.64;76.73;100917.19;5035604;28;20096;-42
2021/12/25 10:26:55;;;;;;;6.40;2.45;;;;;;;-0.53;76.42;100911.97;5035625;28;20083;-40
2021/12/25 10:29:28;;;;;;;2.90;2.20;;;;;;;-0.41;75.99;100912.91;5034154;28;20068;-40
2021/12/25 10:32:02;;;;;;;3.75;2.72;;;;;;;0.00;74.63;100923.16;5034441;28;20039;-40
2021/12/25 10:34:30;;;;;;;3.70;1.73;;;;;;;0.70;71.15;100916.22;5035438;28;20369;-41
2021/12/25 10:37:09;;;;;;;4.40;1.90;;;;;;;1.11;68.93;100926.28;5035508;28;20389;-40
2021/12/25 10:39:35;;;;;;;4.90;1.90;;;;;;;1.20;67.98;100914.97;5035035;28;20033;-41
2021/12/25 10:42:11;;;;;;;3.25;1.90;;;;;;;1.29;68.51;100916.03;5035171;28;20500;-41
2021/12/25 10:44:45;;;;;;;3.30;1.73;;;;;;;1.44;65.65;100917.50;5035321;28;20045;-40
2021/12/25 10:47:25;;;;;;;2.50;1.70;;;;;;;1.51;65.73;100908.09;5034655;28;20492;-41
2021/12/25 10:49:57;;;;;;;2.92;1.70;;;;;;;1.42;63.90;100907.97;5035202;28;20032;-41
2021/12/25 10:52:27;;;;;;;3.10;1.48;;;;;;;1.28;64.76;100901.09;5035131;28;20029;-41
2021/12/25 10:55:06;;;;;;;1.85;1.42;;;;;;;1.47;64.09;100896.03;5035057;28;20116;-41
2021/12/25 10:57:38;;;;;;;1.85;1.42;;;;;;;1.61;63.53;100897.59;5050559;28;20033;-41
2021/12/25 11:00:10;;;;;;;2.08;1.17;;;;;;;1.54;62.29;100891.94;5034982;28;20029;-41
2021/12/25 11:02:41;;;;;;;3.95;1.40;;;;;;;1.38;63.03;100902.06;5034728;28;20029;-41
2021/12/25 11:05:22;;;;;;;3.30;1.40;;;;;;;1.39;63.00;100895.78;5035129;28;20029;-41
2021/12/25 11:08:09;;;;;;;3.72;1.42;;;;;;;1.75;62.32;100897.31;5033877;28;20036;-41
2021/12/25 11:10:48;;;;;;;2.55;1.10;;;;;;;1.92;61.09;100903.06;5034814;28;20032;-41
2021/12/25 11:13:25;;;;;;;5.20;1.50;;;;;;;1.92;60.67;100906.59;5035035;28;20492;-41
2021/12/25 11:15:56;;;;;;;0.80;0.80;;;;;;;1.59;60.59;100896.88;5035301;28;20031;-40
2021/12/25 11:18:23;;;;;;;1.60;1.00;;;;;;;1.29;61.40;100894.81;5034770;28;21183;-42
2021/12/25 11:20:48;;;;;;;2.72;1.02;;;;;;;1.26;61.35;100910.97;5034827;28;20025;-40
2021/12/25 11:23:14;;;;;;;1.98;1.02;;;;;;;1.05;61.28;100903.75;5034607;28;20116;-41
2021/12/25 11:25:44;;;;;;;3.47;1.17;;;;;;;0.87;62.84;100924.56;5033543;28;20033;-41
2021/12/25 11:28:11;;;;;;;1.95;1.13;;;;;;;0.75;63.96;100909.59;5034684;28;20083;-41
2021/12/25 11:30:40;;;;;;;3.03;1.30;;;;;;;0.71;63.59;100902.00;5034613;28;20033;-40
2021/12/25 11:33:05;;;;;;;1.35;1.00;;;;;;;0.63;63.88;100905.22;5034523;28;20270;-42
2021/12/25 11:35:34;;;;;;;3.28;1.30;;;;;;;0.62;64.79;100887.66;5034401;28;20108;-40
2021/12/25 11:38:00;;;;;;;4.25;1.30;;;;;;;0.71;63.60;100884.31;5034362;28;20424;-42
2021/12/25 11:40:27;;;;;;;3.63;1.27;;;;;;;1.26;63.31;100890.66;5034420;28;20116;-42
2021/12/25 11:42:55;;;;;;;5.53;1.30;;;;;;;2.29;59.33;100887.66;5033099;28;20504;-42
2021/12/25 11:45:28;;;;;;;2.13;1.17;;;;;;;2.98;57.09;100865.03;5034259;28;20029;-42
2021/12/25 11:47:59;;;;;;;1.65;1.48;;;;;;;3.17;55.54;100878.41;5034520;28;20021;-42
2021/12/25 11:50:30;;;;;;;1.70;1.15;;;;;;;3.54;55.26;100885.81;5034218;28;20026;-42
2021/12/25 11:53:22;;;;;;;2.85;1.38;;;;;;;3.88;54.49;100894.31;5034243;28;20029;-42
2021/12/25 11:56:15;;;;;;;1.73;1.02;;;;;;;3.93;53.92;100888.59;5034526;28;20337;-42
2021/12/25 11:58:50;;;;;;;1.95;1.13;;;;;;;3.80;53.95;100883.50;5033084;28;20037;-41
2021/12/25 12:01:25;;;;;;;1.42;1.13;;;;;;;3.27;55.63;100878.44;5034148;28;20373;-41
2021/12/25 12:04:03;;;;;;;1.63;1.02;;;;;;;2.96;54.95;100873.13;5034033;28;20021;-43
2021/12/25 12:06:44;;;;;;;4.10;1.05;;;;;;;2.70;56.54;100878.00;5032560;28;20137;-42
2021/12/25 12:09:13;;;;;;;2.78;1.67;;;;;;;2.45;57.20;100881.91;5033928;28;20037;-42
2021/12/25 12:11:42;;;;;;;1.20;0.90;;;;;;;2.17;57.46;100878.03;5033911;28;20028;-42
2021/12/25 12:14:19;;;;;;;4.65;1.10;;;;;;;1.95;58.50;100871.84;5033650;28;20071;-41
2021/12/25 12:16:50;;;;;;;1.23;1.00;;;;;;;1.90;58.92;100874.03;5033702;28;20025;-43
2021/12/25 12:27:39;;;;;;;1.33;0.80;;;;;;;1.67;59.03;100869.72;5033411;28;20044;-41
2021/12/25 12:30:07;;;;;;;1.23;0.90;;;;;;;1.45;58.06;100866.16;5033375;28;20032;-41
2021/12/25 12:32:32;;;;;;;;;;;;;;;1.32;58.90;100865.44;5033995;28;20030;-42
2021/12/25 12:34:58;;;;;;;2.78;1.20;;;;;;;1.00;59.89;100860.88;5033544;28;19932;-41
2021/12/25 12:37:25;;;;;;;1.73;0.90;;;;;;;1.17;60.18;100845.44;5033101;28;20026;-40
2021/12/25 12:39:54;;;;;;;6.75;1.00;;;;;;;1.12;59.04;100847.63;5031979;28;20032;-41
2021/12/25 12:42:40;;;;;;;1.17;1.00;;;;;;;1.16;59.51;100847.25;5033016;28;20037;-41